sensor_id;sensor_type;location;lat;lon;timestamp;pressure;altitude;pressure_sealevel;temperature
61703;BMP280;47622;47.726;3.298;2023-04-24T00:00:13;98352.00;;;9.51
61703;BMP280;47622;47.726;3.298;2023-04-24T00:02:39;98353.38;;;9.57
61703;BMP280;47622;47.726;3.298;2023-04-24T00:05:06;98352.16;;;9.63
61703;BMP280;47622;47.726;3.298;2023-04-24T00:07:33;98353.22;;;9.62
61703;BMP280;47622;47.726;3.298;2023-04-24T00:09:59;98354.28;;;9.61
61703;BMP280;47622;47.726;3.298;2023-04-24T00:12:25;98354.78;;;9.63
61703;BMP280;47622;47.726;3.298;2023-04-24T00:14:52;98358.75;;;9.69
61703;BMP280;47622;47.726;3.298;2023-04-24T00:17:18;98367.06;;;9.71
61703;BMP280;47622;47.726;3.298;2023-04-24T00:19:47;98383.53;;;9.81
61703;BMP280;47622;47.726;3.298;2023-04-24T00:22:13;98380.16;;;9.63
61703;BMP280;47622;47.726;3.298;2023-04-24T00:24:40;98379.09;;;9.38
61703;BMP280;47622;47.726;3.298;2023-04-24T00:27:05;98374.16;;;9.45
61703;BMP280;47622;47.726;3.298;2023-04-24T00:29:31;98372.34;;;9.37
61703;BMP280;47622;47.726;3.298;2023-04-24T00:31:57;98384.16;;;9.17
61703;BMP280;47622;47.726;3.298;2023-04-24T00:34:23;98377.84;;;9.09
61703;BMP280;47622;47.726;3.298;2023-04-24T00:36:49;98377.53;;;9.02
61703;BMP280;47622;47.726;3.298;2023-04-24T00:39:20;98378.78;;;9.13
61703;BMP280;47622;47.726;3.298;2023-04-24T00:41:46;98378.78;;;9.13
61703;BMP280;47622;47.726;3.298;2023-04-24T00:44:13;98391.25;;;9.16
61703;BMP280;47622;47.726;3.298;2023-04-24T00:46:40;98389.09;;;9.10
61703;BMP280;47622;47.726;3.298;2023-04-24T00:49:05;98389.09;;;9.10
61703;BMP280;47622;47.726;3.298;2023-04-24T00:51:32;98396.47;;;9.16
61703;BMP280;47622;47.726;3.298;2023-04-24T00:53:58;98391.41;;;9.11
61703;BMP280;47622;47.726;3.298;2023-04-24T00:56:24;98404.59;;;9.06
61703;BMP280;47622;47.726;3.298;2023-04-24T00:58:50;98402.59;;;9.03
61703;BMP280;47622;47.726;3.298;2023-04-24T01:01:18;98410.78;;;9.10
61703;BMP280;47622;47.726;3.298;2023-04-24T01:03:46;98413.53;;;9.05
61703;BMP280;47622;47.726;3.298;2023-04-24T01:06:12;98408.91;;;9.02
61703;BMP280;47622;47.726;3.298;2023-04-24T01:08:39;98415.81;;;8.90
61703;BMP280;47622;47.726;3.298;2023-04-24T01:11:05;98419.00;;;8.86
61703;BMP280;47622;47.726;3.298;2023-04-24T01:13:31;98421.19;;;8.84
61703;BMP280;47622;47.726;3.298;2023-04-24T01:15:58;98422.38;;;8.87
61703;BMP280;47622;47.726;3.298;2023-04-24T01:18:23;98425.25;;;8.77
61703;BMP280;47622;47.726;3.298;2023-04-24T01:20:51;98427.28;;;8.80
61703;BMP280;47622;47.726;3.298;2023-04-24T01:23:18;98430.06;;;8.75
61703;BMP280;47622;47.726;3.298;2023-04-24T01:25:44;98419.91;;;8.82
61703;BMP280;47622;47.726;3.298;2023-04-24T01:28:11;98425.56;;;8.75
61703;BMP280;47622;47.726;3.298;2023-04-24T01:30:39;98431.25;;;8.77
61703;BMP280;47622;47.726;3.298;2023-04-24T01:33:05;98424.06;;;8.74
61703;BMP280;47622;47.726;3.298;2023-04-24T01:35:31;98431.91;;;8.83
61703;BMP280;47622;47.726;3.298;2023-04-24T01:37:58;98436.88;;;8.84
61703;BMP280;47622;47.726;3.298;2023-04-24T01:40:23;98432.53;;;8.80
61703;BMP280;47622;47.726;3.298;2023-04-24T01:42:49;98435.28;;;8.75
61703;BMP280;47622;47.726;3.298;2023-04-24T01:45:15;98435.28;;;8.75
61703;BMP280;47622;47.726;3.298;2023-04-24T01:47:41;98435.28;;;8.75
61703;BMP280;47622;47.726;3.298;2023-04-24T01:50:07;98424.06;;;8.74
61703;BMP280;47622;47.726;3.298;2023-04-24T01:52:33;98426.03;;;8.69
61703;BMP280;47622;47.726;3.298;2023-04-24T01:55:00;98437.31;;;8.55
61703;BMP280;47622;47.726;3.298;2023-04-24T01:57:26;98430.69;;;8.49
61703;BMP280;47622;47.726;3.298;2023-04-24T01:59:52;98438.53;;;8.49
61703;BMP280;47622;47.726;3.298;2023-04-24T02:02:19;98436.69;;;8.41
61703;BMP280;47622;47.726;3.298;2023-04-24T02:04:46;98434.97;;;8.45
61703;BMP280;47622;47.726;3.298;2023-04-24T02:07:13;98446.50;;;8.44
61703;BMP280;47622;47.726;3.298;2023-04-24T02:09:39;98435.56;;;8.34
61703;BMP280;47622;47.726;3.298;2023-04-24T02:12:04;98439.03;;;8.29
61703;BMP280;47622;47.726;3.298;2023-04-24T02:14:30;98444.25;;;8.29
61703;BMP280;47622;47.726;3.298;2023-04-24T02:16:56;98440.84;;;8.20
61703;BMP280;47622;47.726;3.298;2023-04-24T02:19:21;98440.25;;;8.23
61703;BMP280;47622;47.726;3.298;2023-04-24T02:21:47;98449.50;;;8.29
61703;BMP280;47622;47.726;3.298;2023-04-24T02:24:14;98441.75;;;8.24
61703;BMP280;47622;47.726;3.298;2023-04-24T02:26:42;98440.06;;;8.19
61703;BMP280;47622;47.726;3.298;2023-04-24T02:29:07;98444.47;;;8.10
61703;BMP280;47622;47.726;3.298;2023-04-24T02:31:33;98450.34;;;8.16
61703;BMP280;47622;47.726;3.298;2023-04-24T02:33:59;98449.97;;;8.09
61703;BMP280;47622;47.726;3.298;2023-04-24T02:36:24;98450.09;;;8.04
61703;BMP280;47622;47.726;3.298;2023-04-24T02:38:50;98458.34;;;7.97
61703;BMP280;47622;47.726;3.298;2023-04-24T02:41:16;98453.66;;;8.08
61703;BMP280;47622;47.726;3.298;2023-04-24T02:43:41;98460.47;;;7.95
61703;BMP280;47622;47.726;3.298;2023-04-24T02:46:07;98455.28;;;7.81
61703;BMP280;47622;47.726;3.298;2023-04-24T02:48:33;98461.91;;;7.79
61703;BMP280;47622;47.726;3.298;2023-04-24T02:50:58;98461.69;;;7.75
61703;BMP280;47622;47.726;3.298;2023-04-24T02:53:24;98457.69;;;7.69
61703;BMP280;47622;47.726;3.298;2023-04-24T02:55:50;98462.66;;;7.79
61703;BMP280;47622;47.726;3.298;2023-04-24T02:58:16;98472.63;;;7.77
61703;BMP280;47622;47.726;3.298;2023-04-24T03:00:42;98470.25;;;7.67
61703;BMP280;47622;47.726;3.298;2023-04-24T03:03:09;98469.47;;;7.66
61703;BMP280;47622;47.726;3.298;2023-04-24T03:05:34;98467.34;;;7.68
61703;BMP280;47622;47.726;3.298;2023-04-24T03:08:00;98470.81;;;7.64
61703;BMP280;47622;47.726;3.298;2023-04-24T03:10:27;98468.09;;;7.69
61703;BMP280;47622;47.726;3.298;2023-04-24T03:12:52;98468.22;;;7.64
61703;BMP280;47622;47.726;3.298;2023-04-24T03:15:20;98485.78;;;7.72
61703;BMP280;47622;47.726;3.298;2023-04-24T03:17:45;98490.41;;;7.75
61703;BMP280;47622;47.726;3.298;2023-04-24T03:20:11;98496.16;;;7.86
61703;BMP280;47622;47.726;3.298;2023-04-24T03:22:37;98490.78;;;7.82
61703;BMP280;47622;47.726;3.298;2023-04-24T03:25:03;98482.94;;;7.82
61703;BMP280;47622;47.726;3.298;2023-04-24T03:27:29;98485.56;;;7.82
61703;BMP280;47622;47.726;3.298;2023-04-24T03:29:55;98484.88;;;7.90
61703;BMP280;47622;47.726;3.298;2023-04-24T03:32:22;98497.44;;;7.88
61703;BMP280;47622;47.726;3.298;2023-04-24T03:34:48;98496.00;;;7.82
61703;BMP280;47622;47.726;3.298;2023-04-24T03:37:15;98499.63;;;7.81
61703;BMP280;47622;47.726;3.298;2023-04-24T03:39:41;98506.31;;;7.87
61703;BMP280;47622;47.726;3.298;2023-04-24T03:42:07;98499.44;;;7.91
61703;BMP280;47622;47.726;3.298;2023-04-24T03:44:34;98501.06;;;8.01
61703;BMP280;47622;47.726;3.298;2023-04-24T03:47:00;98501.84;;;8.02
61703;BMP280;47622;47.726;3.298;2023-04-24T03:49:26;98490.44;;;7.97
61703;BMP280;47622;47.726;3.298;2023-04-24T03:51:51;98498.16;;;8.03
61703;BMP280;47622;47.726;3.298;2023-04-24T03:54:18;98502.19;;;8.09
61703;BMP280;47622;47.726;3.298;2023-04-24T03:56:44;98501.00;;;8.15
61703;BMP280;47622;47.726;3.298;2023-04-24T03:59:10;98502.56;;;8.16
61703;BMP280;47622;47.726;3.298;2023-04-24T04:01:36;98504.56;;;8.19
61703;BMP280;47622;47.726;3.298;2023-04-24T04:04:06;98507.53;;;8.26
61703;BMP280;47622;47.726;3.298;2023-04-24T04:06:31;98509.22;;;8.22
61703;BMP280;47622;47.726;3.298;2023-04-24T04:08:58;98505.06;;;8.21
61703;BMP280;47622;47.726;3.298;2023-04-24T04:11:25;98510.84;;;8.18
61703;BMP280;47622;47.726;3.298;2023-04-24T04:13:52;98511.63;;;8.18
61703;BMP280;47622;47.726;3.298;2023-04-24T04:16:18;98509.00;;;8.18
61703;BMP280;47622;47.726;3.298;2023-04-24T04:18:44;98520.50;;;8.31
61703;BMP280;47622;47.726;3.298;2023-04-24T04:21:10;98517.69;;;8.27
61703;BMP280;47622;47.726;3.298;2023-04-24T04:23:36;98519.53;;;8.27
61703;BMP280;47622;47.726;3.298;2023-04-24T04:26:02;98520.00;;;8.29
61703;BMP280;47622;47.726;3.298;2023-04-24T04:28:29;98524.16;;;8.30
61703;BMP280;47622;47.726;3.298;2023-04-24T04:30:56;98517.75;;;8.36
61703;BMP280;47622;47.726;3.298;2023-04-24T04:33:23;98527.25;;;8.32
61703;BMP280;47622;47.726;3.298;2023-04-24T04:35:50;98528.19;;;8.36
61703;BMP280;47622;47.726;3.298;2023-04-24T04:38:18;98538.28;;;8.29
61703;BMP280;47622;47.726;3.298;2023-04-24T04:40:45;98539.69;;;8.35
61703;BMP280;47622;47.726;3.298;2023-04-24T04:43:11;98544.47;;;8.33
61703;BMP280;47622;47.726;3.298;2023-04-24T04:45:38;98546.19;;;8.38
61703;BMP280;47622;47.726;3.298;2023-04-24T04:48:05;98546.41;;;8.50
61703;BMP280;47622;47.726;3.298;2023-04-24T04:50:34;98546.38;;;8.41
61703;BMP280;47622;47.726;3.298;2023-04-24T04:53:00;98550.53;;;8.42
61703;BMP280;47622;47.726;3.298;2023-04-24T04:55:26;98561.91;;;8.46
61703;BMP280;47622;47.726;3.298;2023-04-24T04:57:51;98564.69;;;8.50
61703;BMP280;47622;47.726;3.298;2023-04-24T05:00:17;98569.75;;;8.46
61703;BMP280;47622;47.726;3.298;2023-04-24T05:02:43;98567.84;;;8.38
61703;BMP280;47622;47.726;3.298;2023-04-24T05:05:09;98579.84;;;8.39
61703;BMP280;47622;47.726;3.298;2023-04-24T05:07:35;98578.75;;;8.40
61703;BMP280;47622;47.726;3.298;2023-04-24T05:10:01;98583.66;;;8.33
61703;BMP280;47622;47.726;3.298;2023-04-24T05:12:26;98585.72;;;8.22
61703;BMP280;47622;47.726;3.298;2023-04-24T05:14:52;98596.69;;;8.33
61703;BMP280;47622;47.726;3.298;2023-04-24T05:17:19;98600.72;;;8.39
61703;BMP280;47622;47.726;3.298;2023-04-24T05:19:45;98610.59;;;8.42
61703;BMP280;47622;47.726;3.298;2023-04-24T05:22:11;98605.94;;;8.39
61703;BMP280;47622;47.726;3.298;2023-04-24T05:24:37;98606.94;;;8.43
61703;BMP280;47622;47.726;3.298;2023-04-24T05:27:05;98611.56;;;8.46
61703;BMP280;47622;47.726;3.298;2023-04-24T05:29:31;98617.53;;;8.47
61703;BMP280;47622;47.726;3.298;2023-04-24T05:31:58;98616.91;;;8.41
61703;BMP280;47622;47.726;3.298;2023-04-24T05:34:24;98624.50;;;8.51
61703;BMP280;47622;47.726;3.298;2023-04-24T05:36:50;98634.16;;;8.51
61703;BMP280;47622;47.726;3.298;2023-04-24T05:39:16;98631.28;;;8.52
61703;BMP280;47622;47.726;3.298;2023-04-24T05:41:42;98628.38;;;8.54
61703;BMP280;47622;47.726;3.298;2023-04-24T05:44:08;98632.81;;;8.53
61703;BMP280;47622;47.726;3.298;2023-04-24T05:46:35;98631.19;;;8.66
61703;BMP280;47622;47.726;3.298;2023-04-24T05:49:01;98647.06;;;8.70
61703;BMP280;47622;47.726;3.298;2023-04-24T05:51:28;98657.53;;;8.70
61703;BMP280;47622;47.726;3.298;2023-04-24T05:53:53;98646.88;;;8.66
61703;BMP280;47622;47.726;3.298;2023-04-24T05:56:20;98648.63;;;8.71
61703;BMP280;47622;47.726;3.298;2023-04-24T05:58:46;98655.88;;;8.74
61703;BMP280;47622;47.726;3.298;2023-04-24T06:01:12;98651.63;;;8.86
61703;BMP280;47622;47.726;3.298;2023-04-24T06:03:40;98661.31;;;8.86
61703;BMP280;47622;47.726;3.298;2023-04-24T06:06:07;98656.88;;;8.86
61703;BMP280;47622;47.726;3.298;2023-04-24T06:08:33;98661.09;;;8.96
61703;BMP280;47622;47.726;3.298;2023-04-24T06:10:59;98659.91;;;9.02
61703;BMP280;47622;47.726;3.298;2023-04-24T06:13:24;98662.38;;;9.07
61703;BMP280;47622;47.726;3.298;2023-04-24T06:15:51;98659.91;;;9.02
61703;BMP280;47622;47.726;3.298;2023-04-24T06:18:16;98666.84;;;9.07
61703;BMP280;47622;47.726;3.298;2023-04-24T06:20:43;98676.06;;;9.27
61703;BMP280;47622;47.726;3.298;2023-04-24T06:23:08;98674.22;;;9.36
61703;BMP280;47622;47.726;3.298;2023-04-24T06:25:34;98687.50;;;9.39
61703;BMP280;47622;47.726;3.298;2023-04-24T06:28:00;98686.28;;;9.37
61703;BMP280;47622;47.726;3.298;2023-04-24T06:30:27;98692.50;;;9.27
61703;BMP280;47622;47.726;3.298;2023-04-24T06:32:53;98699.00;;;9.30
61703;BMP280;47622;47.726;3.298;2023-04-24T06:35:19;98701.03;;;9.33
61703;BMP280;47622;47.726;3.298;2023-04-24T06:37:45;98708.00;;;9.24
61703;BMP280;47622;47.726;3.298;2023-04-24T06:40:11;98707.44;;;9.27
61703;BMP280;47622;47.726;3.298;2023-04-24T06:42:36;98710.19;;;9.22
61703;BMP280;47622;47.726;3.298;2023-04-24T06:45:03;98707.59;;;9.30
61703;BMP280;47622;47.726;3.298;2023-04-24T06:47:29;98718.91;;;9.17
61703;BMP280;47622;47.726;3.298;2023-04-24T06:49:55;98723.84;;;9.18
61703;BMP280;47622;47.726;3.298;2023-04-24T06:52:21;98726.78;;;9.26
61703;BMP280;47622;47.726;3.298;2023-04-24T06:54:46;98722.78;;;9.20
61703;BMP280;47622;47.726;3.298;2023-04-24T06:57:12;98728.50;;;9.22
61703;BMP280;47622;47.726;3.298;2023-04-24T06:59:38;98722.06;;;9.05
61703;BMP280;47622;47.726;3.298;2023-04-24T07:02:04;98737.16;;;9.08
61703;BMP280;47622;47.726;3.298;2023-04-24T07:04:30;98734.38;;;9.27
61703;BMP280;47622;47.726;3.298;2023-04-24T07:06:56;98737.03;;;9.36
61703;BMP280;47622;47.726;3.298;2023-04-24T07:09:25;98730.69;;;9.28
61703;BMP280;47622;47.726;3.298;2023-04-24T07:11:51;98734.16;;;9.24
61703;BMP280;47622;47.726;3.298;2023-04-24T07:14:18;98738.47;;;9.20
61703;BMP280;47622;47.726;3.298;2023-04-24T07:16:44;98732.81;;;9.26
61703;BMP280;47622;47.726;3.298;2023-04-24T07:19:10;98735.34;;;9.31
61703;BMP280;47622;47.726;3.298;2023-04-24T07:21:36;98744.50;;;9.51
61703;BMP280;47622;47.726;3.298;2023-04-24T07:24:02;98745.59;;;9.50
61703;BMP280;47622;47.726;3.298;2023-04-24T07:26:29;98753.31;;;9.55
61703;BMP280;47622;47.726;3.298;2023-04-24T07:28:55;98753.88;;;9.74
61703;BMP280;47622;47.726;3.298;2023-04-24T07:31:21;98750.09;;;9.58
61703;BMP280;47622;47.726;3.298;2023-04-24T07:33:47;98750.88;;;9.59
61703;BMP280;47622;47.726;3.298;2023-04-24T07:36:13;98756.25;;;9.62
61703;BMP280;47622;47.726;3.298;2023-04-24T07:38:42;98754.72;;;9.61
61703;BMP280;47622;47.726;3.298;2023-04-24T07:41:09;98749.22;;;9.71
61703;BMP280;47622;47.726;3.298;2023-04-24T07:43:35;98762.63;;;9.70
61703;BMP280;47622;47.726;3.298;2023-04-24T07:46:01;98759.38;;;9.64
61703;BMP280;47622;47.726;3.298;2023-04-24T07:48:27;98761.28;;;9.81
61703;BMP280;47622;47.726;3.298;2023-04-24T07:50:53;98756.75;;;9.64
61703;BMP280;47622;47.726;3.298;2023-04-24T07:53:19;98759.06;;;9.66
61703;BMP280;47622;47.726;3.298;2023-04-24T07:55:45;98757.91;;;9.50
61703;BMP280;47622;47.726;3.298;2023-04-24T07:58:11;98766.72;;;9.62
61703;BMP280;47622;47.726;3.298;2023-04-24T08:00:36;98771.50;;;9.60
61703;BMP280;47622;47.726;3.298;2023-04-24T08:03:02;98767.69;;;9.66
61703;BMP280;47622;47.726;3.298;2023-04-24T08:05:28;98779.59;;;9.50
61703;BMP280;47622;47.726;3.298;2023-04-24T08:07:54;98768.06;;;9.51
61703;BMP280;47622;47.726;3.298;2023-04-24T08:10:21;98776.22;;;9.27
61703;BMP280;47622;47.726;3.298;2023-04-24T08:12:47;98776.91;;;9.33
61703;BMP280;47622;47.726;3.298;2023-04-24T08:15:12;98777.34;;;9.35
61703;BMP280;47622;47.726;3.298;2023-04-24T08:17:38;98778.41;;;9.34
61703;BMP280;47622;47.726;3.298;2023-04-24T08:20:04;98783.72;;;9.42
61703;BMP280;47622;47.726;3.298;2023-04-24T08:22:30;98774.53;;;9.54
61703;BMP280;47622;47.726;3.298;2023-04-24T08:24:56;98773.41;;;9.68
61703;BMP280;47622;47.726;3.298;2023-04-24T08:27:23;98776.94;;;9.95
61703;BMP280;47622;47.726;3.298;2023-04-24T08:29:49;98776.88;;;10.34
61703;BMP280;47622;47.726;3.298;2023-04-24T08:32:15;98776.91;;;10.52
61703;BMP280;47622;47.726;3.298;2023-04-24T08:34:40;98782.97;;;10.87
61703;BMP280;47622;47.726;3.298;2023-04-24T08:37:07;98785.28;;;11.23
61703;BMP280;47622;47.726;3.298;2023-04-24T08:39:33;98779.00;;;11.53
61703;BMP280;47622;47.726;3.298;2023-04-24T08:41:59;98786.28;;;11.48
61703;BMP280;47622;47.726;3.298;2023-04-24T08:44:32;98787.00;;;11.66
61703;BMP280;47622;47.726;3.298;2023-04-24T08:46:58;98790.50;;;11.40
61703;BMP280;47622;47.726;3.298;2023-04-24T08:49:24;98797.19;;;11.76
61703;BMP280;47622;47.726;3.298;2023-04-24T08:51:52;98797.31;;;11.79
61703;BMP280;47622;47.726;3.298;2023-04-24T08:54:18;98800.72;;;11.33
61703;BMP280;47622;47.726;3.298;2023-04-24T08:56:44;98807.78;;;11.41
61703;BMP280;47622;47.726;3.298;2023-04-24T08:59:11;98811.59;;;11.52
61703;BMP280;47622;47.726;3.298;2023-04-24T09:01:39;98797.91;;;11.21
61703;BMP280;47622;47.726;3.298;2023-04-24T09:04:08;98802.25;;;11.34
61703;BMP280;47622;47.726;3.298;2023-04-24T09:06:40;98812.69;;;11.51
61703;BMP280;47622;47.726;3.298;2023-04-24T09:09:07;98804.31;;;11.67
61703;BMP280;47622;47.726;3.298;2023-04-24T09:11:34;98800.06;;;12.30
61703;BMP280;47622;47.726;3.298;2023-04-24T09:14:00;98801.00;;;12.46
61703;BMP280;47622;47.726;3.298;2023-04-24T09:16:26;98800.19;;;11.95
61703;BMP280;47622;47.726;3.298;2023-04-24T09:18:52;98804.28;;;12.43
61703;BMP280;47622;47.726;3.298;2023-04-24T09:21:20;98801.59;;;12.52
61703;BMP280;47622;47.726;3.298;2023-04-24T09:23:46;98799.88;;;12.56
61703;BMP280;47622;47.726;3.298;2023-04-24T09:26:12;98797.88;;;12.73
61703;BMP280;47622;47.726;3.298;2023-04-24T09:28:40;98799.00;;;13.51
61703;BMP280;47622;47.726;3.298;2023-04-24T09:31:14;98804.94;;;13.60
61703;BMP280;47622;47.726;3.298;2023-04-24T09:34:03;98798.56;;;13.36
61703;BMP280;47622;47.726;3.298;2023-04-24T09:36:42;98810.25;;;13.72
61703;BMP280;47622;47.726;3.298;2023-04-24T09:39:10;98804.97;;;13.72
61703;BMP280;47622;47.726;3.298;2023-04-24T09:41:53;98806.47;;;13.36
61703;BMP280;47622;47.726;3.298;2023-04-24T09:44:22;98809.03;;;13.12
61703;BMP280;47622;47.726;3.298;2023-04-24T09:46:53;98795.97;;;12.62
61703;BMP280;47622;47.726;3.298;2023-04-24T09:49:24;98803.09;;;12.61
61703;BMP280;47622;47.726;3.298;2023-04-24T09:51:50;98800.38;;;12.70
61703;BMP280;47622;47.726;3.298;2023-04-24T09:54:17;98799.72;;;12.94
61703;BMP280;47622;47.726;3.298;2023-04-24T09:56:45;98810.91;;;12.70
61703;BMP280;47622;47.726;3.298;2023-04-24T09:59:12;98813.19;;;12.92
61703;BMP280;47622;47.726;3.298;2023-04-24T10:01:38;98817.06;;;13.28
61703;BMP280;47622;47.726;3.298;2023-04-24T10:04:15;98828.63;;;13.35
61703;BMP280;47622;47.726;3.298;2023-04-24T10:06:42;98822.31;;;13.28
61703;BMP280;47622;47.726;3.298;2023-04-24T10:09:08;98828.53;;;13.11
61703;BMP280;47622;47.726;3.298;2023-04-24T10:11:36;98825.13;;;13.10
61703;BMP280;47622;47.726;3.298;2023-04-24T10:14:03;98817.25;;;12.69
61703;BMP280;47622;47.726;3.298;2023-04-24T10:16:29;98824.13;;;12.61
61703;BMP280;47622;47.726;3.298;2023-04-24T10:18:59;98819.06;;;12.27
61703;BMP280;47622;47.726;3.298;2023-04-24T10:21:26;98822.50;;;12.48
61703;BMP280;47622;47.726;3.298;2023-04-24T10:23:52;98830.59;;;12.64
61703;BMP280;47622;47.726;3.298;2023-04-24T10:26:19;98836.28;;;12.87
61703;BMP280;47622;47.726;3.298;2023-04-24T10:28:45;98830.22;;;12.95
61703;BMP280;47622;47.726;3.298;2023-04-24T10:31:12;98836.19;;;12.83
61703;BMP280;47622;47.726;3.298;2023-04-24T10:33:39;98833.66;;;12.87
61703;BMP280;47622;47.726;3.298;2023-04-24T10:36:08;98837.34;;;12.94
61703;BMP280;47622;47.726;3.298;2023-04-24T10:38:35;98829.69;;;13.01
61703;BMP280;47622;47.726;3.298;2023-04-24T10:41:08;98838.81;;;12.62
61703;BMP280;47622;47.726;3.298;2023-04-24T10:43:34;98837.38;;;12.86
61703;BMP280;47622;47.726;3.298;2023-04-24T10:46:05;98834.84;;;12.56
61703;BMP280;47622;47.726;3.298;2023-04-24T10:48:31;98833.94;;;12.73
61703;BMP280;47622;47.726;3.298;2023-04-24T10:50:58;98838.81;;;13.04
61703;BMP280;47622;47.726;3.298;2023-04-24T10:53:29;98837.78;;;12.75
61703;BMP280;47622;47.726;3.298;2023-04-24T10:56:04;98840.97;;;13.02
61703;BMP280;47622;47.726;3.298;2023-04-24T10:58:43;98837.78;;;12.75
61703;BMP280;47622;47.726;3.298;2023-04-24T11:01:32;98826.13;;;12.64
61703;BMP280;47622;47.726;3.298;2023-04-24T11:04:02;98832.22;;;12.98
61703;BMP280;47622;47.726;3.298;2023-04-24T11:06:36;98827.88;;;13.14
61703;BMP280;47622;47.726;3.298;2023-04-24T11:09:06;98831.19;;;13.23
61703;BMP280;47622;47.726;3.298;2023-04-24T11:11:35;98829.78;;;13.26
61703;BMP280;47622;47.726;3.298;2023-04-24T11:14:04;98829.44;;;13.15
61703;BMP280;47622;47.726;3.298;2023-04-24T11:16:45;98838.09;;;13.49
61703;BMP280;47622;47.726;3.298;2023-04-24T11:19:23;98841.44;;;13.82
61703;BMP280;47622;47.726;3.298;2023-04-24T11:21:59;98833.84;;;14.29
61703;BMP280;47622;47.726;3.298;2023-04-24T11:27:05;98846.59;;;13.91
61703;BMP280;47622;47.726;3.298;2023-04-24T11:35:06;98833.22;;;13.38
61703;BMP280;47622;47.726;3.298;2023-04-24T11:37:38;98844.38;;;13.23
61703;BMP280;47622;47.726;3.298;2023-04-24T11:40:06;98840.00;;;13.39
61703;BMP280;47622;47.726;3.298;2023-04-24T11:42:40;98837.47;;;13.64
61703;BMP280;47622;47.726;3.298;2023-04-24T11:47:43;98829.75;;;13.47
61703;BMP280;47622;47.726;3.298;2023-04-24T11:50:16;98832.25;;;13.31
61703;BMP280;47622;47.726;3.298;2023-04-24T11:52:47;98832.09;;;13.27
61703;BMP280;47622;47.726;3.298;2023-04-24T11:57:48;98818.88;;;13.03
61703;BMP280;47622;47.726;3.298;2023-04-24T12:00:23;98821.50;;;13.03
61703;BMP280;47622;47.726;3.298;2023-04-24T12:02:49;98833.19;;;13.26
61703;BMP280;47622;47.726;3.298;2023-04-24T12:05:23;98830.06;;;13.12
61703;BMP280;47622;47.726;3.298;2023-04-24T12:07:50;98838.16;;;13.07
61703;BMP280;47622;47.726;3.298;2023-04-24T12:10:24;98834.94;;;13.22
61703;BMP280;47622;47.726;3.298;2023-04-24T12:12:51;98840.13;;;13.31
61703;BMP280;47622;47.726;3.298;2023-04-24T12:15:20;98841.69;;;13.11
61703;BMP280;47622;47.726;3.298;2023-04-24T12:17:46;98835.72;;;13.02
61703;BMP280;47622;47.726;3.298;2023-04-24T12:20:15;98836.44;;;12.90
61703;BMP280;47622;47.726;3.298;2023-04-24T12:22:54;98849.19;;;13.21
61703;BMP280;47622;47.726;3.298;2023-04-24T12:25:22;98835.47;;;13.61
61703;BMP280;47622;47.726;3.298;2023-04-24T12:28:17;98837.00;;;13.50
61703;BMP280;47622;47.726;3.298;2023-04-24T12:30:43;98843.84;;;13.63
61703;BMP280;47622;47.726;3.298;2023-04-24T12:33:20;98839.00;;;13.77
61703;BMP280;47622;47.726;3.298;2023-04-24T12:35:48;98832.09;;;13.27
61703;BMP280;47622;47.726;3.298;2023-04-24T12:38:21;98840.38;;;13.50
61703;BMP280;47622;47.726;3.298;2023-04-24T12:40:48;98831.63;;;13.58
61703;BMP280;47622;47.726;3.298;2023-04-24T12:43:26;98834.94;;;13.22
61703;BMP280;47622;47.726;3.298;2023-04-24T12:45:52;98835.44;;;13.36
61703;BMP280;47622;47.726;3.298;2023-04-24T12:48:18;98836.50;;;13.02
61703;BMP280;47622;47.726;3.298;2023-04-24T12:50:47;98839.44;;;13.22
61703;BMP280;47622;47.726;3.298;2023-04-24T12:53:14;98821.50;;;13.03
61703;BMP280;47622;47.726;3.298;2023-04-24T12:55:40;98825.47;;;12.67
61703;BMP280;47622;47.726;3.298;2023-04-24T12:58:07;98827.06;;;12.80
61703;BMP280;47622;47.726;3.298;2023-04-24T13:00:33;98821.31;;;13.20
61703;BMP280;47622;47.726;3.298;2023-04-24T13:03:00;98824.47;;;13.47
61703;BMP280;47622;47.726;3.298;2023-04-24T13:05:26;98834.63;;;13.81
61703;BMP280;47622;47.726;3.298;2023-04-24T13:08:01;98828.16;;;14.15
61703;BMP280;47622;47.726;3.298;2023-04-24T13:10:27;98826.59;;;14.14
61703;BMP280;47622;47.726;3.298;2023-04-24T13:12:53;98819.59;;;14.06
61703;BMP280;47622;47.726;3.298;2023-04-24T13:15:19;98823.50;;;13.18
61703;BMP280;47622;47.726;3.298;2023-04-24T13:17:45;98823.09;;;13.28
61703;BMP280;47622;47.726;3.298;2023-04-24T13:20:12;98820.25;;;13.33
61703;BMP280;47622;47.726;3.298;2023-04-24T13:22:39;98835.47;;;13.61
61703;BMP280;47622;47.726;3.298;2023-04-24T13:25:05;98836.59;;;13.96
61703;BMP280;47622;47.726;3.298;2023-04-24T13:27:33;98816.19;;;14.06
61703;BMP280;47622;47.726;3.298;2023-04-24T13:29:59;98825.50;;;14.27
61703;BMP280;47622;47.726;3.298;2023-04-24T13:32:24;98813.75;;;14.25
61703;BMP280;47622;47.726;3.298;2023-04-24T13:34:50;98809.47;;;14.20
61703;BMP280;47622;47.726;3.298;2023-04-24T13:37:17;98811.25;;;14.04
61703;BMP280;47622;47.726;3.298;2023-04-24T13:39:45;98821.19;;;14.35
61703;BMP280;47622;47.726;3.298;2023-04-24T13:42:11;98827.69;;;14.78
61703;BMP280;47622;47.726;3.298;2023-04-24T13:44:38;98823.84;;;14.35
61703;BMP280;47622;47.726;3.298;2023-04-24T13:47:03;98833.84;;;14.29
61703;BMP280;47622;47.726;3.298;2023-04-24T13:49:29;98827.78;;;14.53
61703;BMP280;47622;47.726;3.298;2023-04-24T13:51:56;98823.56;;;14.64
61703;BMP280;47622;47.726;3.298;2023-04-24T13:54:22;98812.06;;;14.32
61703;BMP280;47622;47.726;3.298;2023-04-24T13:56:49;98818.59;;;14.11
61703;BMP280;47622;47.726;3.298;2023-04-24T13:59:15;98821.66;;;14.25
61703;BMP280;47622;47.726;3.298;2023-04-24T14:01:41;98816.97;;;14.06
61703;BMP280;47622;47.726;3.298;2023-04-24T14:04:07;98816.63;;;13.95
61703;BMP280;47622;47.726;3.298;2023-04-24T14:06:33;98804.41;;;14.03
61703;BMP280;47622;47.726;3.298;2023-04-24T14:08:58;98813.09;;;14.16
61703;BMP280;47622;47.726;3.298;2023-04-24T14:11:27;98800.66;;;14.28
61703;BMP280;47622;47.726;3.298;2023-04-24T14:13:54;98799.03;;;14.36
61703;BMP280;47622;47.726;3.298;2023-04-24T14:16:21;98797.50;;;13.98
61703;BMP280;47622;47.726;3.298;2023-04-24T14:18:47;98786.53;;;13.84
61703;BMP280;47622;47.726;3.298;2023-04-24T14:21:13;98782.72;;;14.34
61703;BMP280;47622;47.726;3.298;2023-04-24T14:23:38;98785.75;;;14.60
61703;BMP280;47622;47.726;3.298;2023-04-24T14:26:05;98786.94;;;13.98
61703;BMP280;47622;47.726;3.298;2023-04-24T14:28:31;98779.91;;;13.66